Time;durP1;ratioP1;P1;durP2;ratioP2;P2;SDS_P1;SDS_P2;PMS_P1;PMS_P2;Temp;Humidity;BMP_temperature;BMP_pressure;BME280_temperature;BME280_humidity;BME280_pressure;Samples;Min_cycle;Max_cycle;Signal;HPM_P1;HPM_P2
2021/05/02 00:00:15;;;;;;;12.00;10.90;;;9.50;99.90;;;;;;5084746;28;20564;-58
2021/05/02 00:02:41;;;;;;;12.80;11.50;;;9.50;99.90;;;;;;5096246;28;20836;-56
2021/05/02 00:05:07;;;;;;;12.90;11.63;;;9.70;99.90;;;;;;5099388;28;20437;-57
2021/05/02 00:07:33;;;;;;;11.63;10.43;;;9.40;99.90;;;;;;5085581;28;20285;-55
2021/05/02 00:10:00;;;;;;;13.03;11.37;;;9.40;99.90;;;;;;5085471;28;21003;-57
2021/05/02 00:12:26;;;;;;;12.57;11.13;;;9.50;99.90;;;;;;5085973;28;20835;-57
2021/05/02 00:14:53;;;;;;;12.77;11.47;;;9.40;99.90;;;;;;5085696;28;20534;-59
2021/05/02 00:17:20;;;;;;;13.50;11.60;;;9.40;99.90;;;;;;5086308;28;20418;-58
2021/05/02 00:19:46;;;;;;;12.70;11.37;;;9.50;99.90;;;;;;5073311;28;20847;-59
2021/05/02 00:22:19;;;;;;;13.37;10.13;;;9.50;99.90;;;;;;5086060;28;20577;-59
2021/05/02 00:24:47;;;;;;;14.30;12.10;;;9.20;99.90;;;;;;5100566;28;20417;-58
2021/05/02 00:27:13;;;;;;;12.43;10.83;;;9.30;99.90;;;;;;5105042;28;20429;-58
2021/05/02 00:29:43;;;;;;;12.50;11.20;;;9.20;99.90;;;;;;5096563;28;20784;-57
2021/05/02 00:32:10;;;;;;;13.03;10.90;;;9.20;99.90;;;;;;5093899;28;20872;-57
2021/05/02 00:34:36;;;;;;;13.67;11.37;;;9.40;99.90;;;;;;5087847;28;20865;-58
2021/05/02 00:37:06;;;;;;;12.83;11.47;;;9.10;99.90;;;;;;5083804;28;20933;-57
2021/05/02 00:39:34;;;;;;;11.00;9.87;;;9.10;99.90;;;;;;5099744;28;20418;-58
2021/05/02 00:42:04;;;;;;;13.13;11.23;;;9.10;99.90;;;;;;5100782;27;20413;-58
2021/05/02 00:44:54;;;;;;;12.47;10.77;;;9.10;99.90;;;;;;5096139;28;20480;-57
2021/05/02 00:47:37;;;;;;;13.73;11.87;;;9.00;99.90;;;;;;5078520;28;20962;-57
2021/05/02 00:50:09;;;;;;;13.13;11.63;;;9.10;99.90;;;;;;5081192;28;20435;-58
2021/05/02 00:53:20;;;;;;;12.13;10.83;;;9.00;99.90;;;;;;5087297;28;20458;-58
2021/05/02 00:55:57;;;;;;;13.33;11.53;;;9.20;99.90;;;;;;5085248;28;20457;-58
2021/05/02 00:58:40;;;;;;;15.10;12.00;;;9.10;99.90;;;;;;5087936;28;20432;-56
2021/05/02 01:01:08;;;;;;;13.30;11.63;;;9.20;99.90;;;;;;5087511;28;20410;-58
2021/05/02 01:03:34;;;;;;;16.17;12.70;;;9.10;99.90;;;;;;5089154;28;20426;-56
2021/05/02 01:06:08;;;;;;;13.80;11.00;;;9.00;99.90;;;;;;5080223;28;20997;-58
2021/05/02 01:08:36;;;;;;;15.70;12.77;;;9.10;99.90;;;;;;5088836;28;20464;-58
2021/05/02 01:11:04;;;;;;;14.73;13.13;;;9.10;99.90;;;;;;5088174;28;20458;-58
2021/05/02 01:13:35;;;;;;;13.87;12.03;;;9.00;99.90;;;;;;5089167;28;20426;-59
2021/05/02 01:16:04;;;;;;;15.10;12.90;;;8.90;99.90;;;;;;5088711;28;20430;-57
2021/05/02 01:18:29;;;;;;;14.70;12.07;;;8.90;99.90;;;;;;5088911;28;20506;-58
2021/05/02 01:20:57;;;;;;;14.27;12.70;;;8.80;99.90;;;;;;5080207;28;20517;-57
2021/05/02 01:23:27;;;;;;;14.27;11.77;;;8.90;99.90;;;;;;5090959;28;20212;-58
2021/05/02 01:25:59;;;;;;;16.30;14.20;;;9.00;99.90;;;;;;5088508;28;20950;-58
2021/05/02 01:28:28;;;;;;;15.13;13.53;;;8.80;99.90;;;;;;5104118;28;20432;-58
2021/05/02 01:30:56;;;;;;;14.37;12.30;;;8.90;99.90;;;;;;5108473;28;20514;-57
2021/05/02 01:33:22;;;;;;;16.40;13.33;;;8.80;99.90;;;;;;5107418;28;20642;-58
2021/05/02 01:35:49;;;;;;;14.10;12.07;;;8.70;99.90;;;;;;5085934;28;20454;-56
2021/05/02 01:38:16;;;;;;;14.97;11.53;;;8.80;99.90;;;;;;5092656;28;20414;-58
2021/05/02 01:40:42;;;;;;;16.60;12.63;;;8.70;99.90;;;;;;5101497;28;20424;-58
2021/05/02 01:43:08;;;;;;;14.40;11.50;;;8.70;99.90;;;;;;5104779;28;20906;-58
2021/05/02 01:45:34;;;;;;;15.40;12.70;;;8.80;99.90;;;;;;5101126;28;20483;-59
2021/05/02 01:48:07;;;;;;;14.00;12.53;;;8.80;99.90;;;;;;5108754;28;20461;-58
2021/05/02 01:50:41;;;;;;;15.10;12.40;;;8.70;99.90;;;;;;5086060;28;20326;-57
2021/05/02 01:53:07;;;;;;;15.30;11.77;;;8.70;99.90;;;;;;5082394;28;20902;-58
2021/05/02 01:55:33;;;;;;;14.90;12.80;;;8.70;99.90;;;;;;5087895;28;20423;-59
2021/05/02 01:57:59;;;;;;;14.20;12.40;;;8.80;99.90;;;;;;5088216;28;20999;-57
2021/05/02 02:00:38;;;;;;;13.00;11.63;;;8.70;99.90;;;;;;5086338;28;20453;-58
2021/05/02 02:03:05;;;;;;;19.80;12.30;;;8.80;99.90;;;;;;5087848;28;20826;-58
2021/05/02 02:05:32;;;;;;;13.73;11.50;;;8.60;99.90;;;;;;5078831;28;20637;-58
2021/05/02 02:07:59;;;;;;;13.63;12.20;;;8.70;99.90;;;;;;5081028;28;20442;-58
2021/05/02 02:10:25;;;;;;;15.83;12.07;;;8.60;99.90;;;;;;5089958;28;20472;-58
2021/05/02 02:12:52;;;;;;;13.17;11.50;;;8.90;99.90;;;;;;5108584;28;20465;-58
2021/05/02 02:15:19;;;;;;;16.33;12.10;;;8.70;99.90;;;;;;5105256;28;20425;-57
2021/05/02 02:17:45;;;;;;;12.10;10.57;;;8.80;99.90;;;;;;5107898;28;20540;-57
2021/05/02 02:20:11;;;;;;;13.93;11.80;;;8.60;99.90;;;;;;5097021;28;20510;-57
2021/05/02 02:22:39;;;;;;;14.07;10.70;;;8.60;99.90;;;;;;5080918;28;20434;-59
2021/05/02 02:25:06;;;;;;;14.10;11.50;;;8.60;99.90;;;;;;5087471;28;20441;-58
2021/05/02 02:27:32;;;;;;;14.93;12.40;;;8.70;99.90;;;;;;5087435;28;20432;-58
2021/05/02 02:30:01;;;;;;;11.50;10.40;;;8.50;99.90;;;;;;5086730;28;20429;-56
2021/05/02 02:32:28;;;;;;;13.20;10.70;;;8.60;99.90;;;;;;5086884;28;20459;-58
2021/05/02 02:34:58;;;;;;;10.53;9.37;;;8.60;99.90;;;;;;5095803;28;20422;-57
2021/05/02 02:37:26;;;;;;;11.67;10.23;;;8.70;99.90;;;;;;5085693;28;20427;-58
2021/05/02 02:39:54;;;;;;;11.70;10.07;;;8.60;99.90;;;;;;5097405;28;20414;-58
2021/05/02 02:42:24;;;;;;;10.50;9.40;;;8.80;99.90;;;;;;5100993;28;20417;-58
2021/05/02 02:44:58;;;;;;;12.50;10.10;;;8.70;99.90;;;;;;5084957;28;20505;-58
2021/05/02 02:47:45;;;;;;;12.13;10.40;;;8.70;99.90;;;;;;5085654;28;20429;-57
2021/05/02 02:50:14;;;;;;;10.03;8.93;;;8.40;99.90;;;;;;5082665;28;20430;-58
2021/05/02 02:52:53;;;;;;;12.17;9.60;;;8.50;99.90;;;;;;5080885;28;20640;-58
2021/05/02 02:55:21;;;;;;;11.40;9.10;;;8.50;99.90;;;;;;5089724;28;20424;-58
2021/05/02 02:57:52;;;;;;;10.90;9.67;;;8.40;99.90;;;;;;5106757;28;20420;-58
2021/05/02 03:00:20;;;;;;;10.17;9.07;;;8.50;99.90;;;;;;5103555;28;20781;-58
2021/05/02 03:02:50;;;;;;;10.27;9.17;;;8.50;99.90;;;;;;5107303;28;20533;-58
2021/05/02 03:05:19;;;;;;;10.87;9.00;;;8.30;99.90;;;;;;5103108;28;20848;-58
2021/05/02 03:07:47;;;;;;;11.43;10.17;;;8.40;99.90;;;;;;5079191;28;20426;-59
2021/05/02 03:10:14;;;;;;;10.63;9.10;;;8.30;99.90;;;;;;5094036;28;20807;-58
2021/05/02 03:12:42;;;;;;;11.17;8.97;;;8.50;99.90;;;;;;5107349;28;20461;-56
2021/05/02 03:15:09;;;;;;;17.00;10.73;;;8.40;99.90;;;;;;5095523;28;20878;-59
2021/05/02 03:17:36;;;;;;;10.03;9.00;;;8.30;99.90;;;;;;5107092;28;20428;-58
2021/05/02 03:20:13;;;;;;;13.30;9.30;;;8.40;99.90;;;;;;5106111;28;20509;-58
2021/05/02 03:22:49;;;;;;;12.30;10.47;;;8.40;99.90;;;;;;5071042;28;20435;-59
2021/05/02 03:25:19;;;;;;;9.70;8.40;;;8.30;99.90;;;;;;5086663;28;20896;-57
2021/05/02 03:28:13;;;;;;;10.70;8.97;;;8.40;99.90;;;;;;5099937;28;20546;-56
2021/05/02 03:30:45;;;;;;;9.67;8.13;;;8.40;99.90;;;;;;5098292;28;20428;-58
2021/05/02 03:33:14;;;;;;;9.80;8.60;;;8.50;99.90;;;;;;5107223;28;20425;-58
2021/05/02 03:35:43;;;;;;;10.80;7.73;;;8.20;99.90;;;;;;5083660;28;20410;-58
2021/05/02 03:38:33;;;;;;;10.17;8.30;;;8.20;99.90;;;;;;5076490;28;20456;-57
2021/05/02 03:40:59;;;;;;;7.00;6.07;;;8.30;99.90;;;;;;5080078;28;20501;-57
2021/05/02 03:43:25;;;;;;;8.10;6.60;;;8.30;99.90;;;;;;5086422;28;20514;-57
2021/05/02 03:45:51;;;;;;;8.20;6.37;;;8.40;99.90;;;;;;5086163;28;20497;-57
2021/05/02 03:48:16;;;;;;;8.10;6.37;;;8.10;99.90;;;;;;5086496;28;20238;-57
2021/05/02 03:50:42;;;;;;;10.47;7.00;;;8.20;99.90;;;;;;5085560;28;20208;-57
2021/05/02 03:53:08;;;;;;;8.20;6.70;;;8.30;99.90;;;;;;5073902;28;20572;-58
2021/05/02 03:55:45;;;;;;;9.23;7.53;;;8.10;99.90;;;;;;5086090;28;20185;-59
2021/05/02 03:58:12;;;;;;;7.40;6.50;;;8.10;99.90;;;;;;5084900;28;20206;-59
2021/05/02 04:00:39;;;;;;;7.37;6.60;;;8.10;99.90;;;;;;5083294;28;20456;-58
2021/05/02 04:03:05;;;;;;;11.30;7.43;;;8.10;99.90;;;;;;5089494;28;20422;-58
2021/05/02 04:05:30;;;;;;;10.20;8.73;;;8.20;99.90;;;;;;5090192;28;20798;-58
2021/05/02 04:07:56;;;;;;;8.83;7.33;;;8.10;99.90;;;;;;5080624;28;20518;-58
2021/05/02 04:10:22;;;;;;;11.03;8.50;;;8.20;99.90;;;;;;5089170;28;20279;-58
2021/05/02 04:12:48;;;;;;;11.10;9.20;;;8.20;99.90;;;;;;5068498;28;20215;-58
2021/05/02 04:15:14;;;;;;;13.20;9.80;;;8.20;99.90;;;;;;5085939;28;20509;-57
2021/05/02 04:17:40;;;;;;;10.70;9.33;;;8.20;99.90;;;;;;5090007;28;20411;-59
2021/05/02 04:20:06;;;;;;;11.60;8.93;;;8.40;99.90;;;;;;5089490;28;20430;-58
2021/05/02 04:22:32;;;;;;;12.53;10.57;;;8.20;99.90;;;;;;5081250;28;20181;-58
2021/05/02 04:24:58;;;;;;;11.13;10.00;;;8.20;99.90;;;;;;5091712;28;20479;-58
2021/05/02 04:27:24;;;;;;;11.50;9.70;;;8.30;99.90;;;;;;5102310;28;20265;-59
2021/05/02 04:29:50;;;;;;;12.07;10.30;;;8.10;99.90;;;;;;5107963;28;20241;-59
2021/05/02 04:32:15;;;;;;;16.07;10.97;;;8.40;99.90;;;;;;5098783;28;20456;-57
2021/05/02 04:34:41;;;;;;;11.93;9.53;;;8.30;99.90;;;;;;5103886;28;20184;-58
2021/05/02 04:37:07;;;;;;;12.63;10.13;;;8.30;99.90;;;;;;5093437;28;20194;-59
2021/05/02 04:39:33;;;;;;;11.43;9.47;;;8.30;99.90;;;;;;5088084;28;20193;-58
2021/05/02 04:41:59;;;;;;;11.30;9.73;;;8.20;99.90;;;;;;5099455;28;20190;-58
2021/05/02 04:44:25;;;;;;;12.83;10.20;;;8.60;99.90;;;;;;5109907;28;20425;-57
2021/05/02 04:46:52;;;;;;;10.43;8.20;;;8.30;99.90;;;;;;5104231;28;20418;-58
2021/05/02 04:49:18;;;;;;;12.33;9.43;;;8.60;99.90;;;;;;5108986;28;20433;-56
2021/05/02 04:51:44;;;;;;;11.60;9.60;;;8.30;99.90;;;;;;5106081;28;20449;-57
2021/05/02 04:54:10;;;;;;;13.40;9.70;;;8.50;99.90;;;;;;5079011;28;20830;-58
2021/05/02 04:56:37;;;;;;;11.47;9.13;;;8.50;99.90;;;;;;5092590;28;21007;-57
2021/05/02 04:59:05;;;;;;;11.97;9.80;;;8.40;99.90;;;;;;5092151;28;20840;-58
2021/05/02 05:01:32;;;;;;;11.30;9.80;;;8.60;99.90;;;;;;5106009;28;20430;-58
2021/05/02 05:03:58;;;;;;;11.23;9.27;;;8.50;99.90;;;;;;5109497;28;20456;-58
2021/05/02 05:06:24;;;;;;;11.83;8.60;;;8.30;99.90;;;;;;5109306;28;20449;-58
2021/05/02 05:08:50;;;;;;;11.83;8.83;;;8.40;99.90;;;;;;5078354;28;21168;-58
2021/05/02 05:11:16;;;;;;;10.23;8.90;;;8.50;99.90;;;;;;5088579;28;20512;-58
2021/05/02 05:13:42;;;;;;;13.70;8.73;;;8.50;99.90;;;;;;5087636;28;20423;-58
2021/05/02 05:16:08;;;;;;;12.70;9.60;;;8.20;99.90;;;;;;5088955;28;20506;-59
2021/05/02 05:18:34;;;;;;;11.10;8.73;;;8.40;99.90;;;;;;5088721;28;20274;-58
2021/05/02 05:21:00;;;;;;;10.13;8.00;;;8.20;99.90;;;;;;5088352;28;20282;-58
2021/05/02 05:23:25;;;;;;;11.30;8.00;;;8.10;99.90;;;;;;5082838;28;20219;-56
2021/05/02 05:25:53;;;;;;;9.03;8.00;;;8.30;99.90;;;;;;5088971;28;20505;-58
2021/05/02 05:28:19;;;;;;;14.13;8.57;;;8.20;99.90;;;;;;5087210;28;20191;-57
2021/05/02 05:30:45;;;;;;;8.23;7.40;;;8.20;99.90;;;;;;5088076;28;20910;-57
2021/05/02 05:33:11;;;;;;;10.93;8.13;;;8.30;99.90;;;;;;5088278;28;20480;-58
2021/05/02 05:35:38;;;;;;;8.73;7.03;;;8.40;99.90;;;;;;5086832;28;20185;-57
2021/05/02 05:38:05;;;;;;;10.57;7.80;;;8.40;99.90;;;;;;5082296;28;20187;-59
2021/05/02 05:40:30;;;;;;;11.33;6.90;;;8.50;99.90;;;;;;5085492;28;20417;-58
2021/05/02 05:42:56;;;;;;;7.50;6.70;;;8.50;99.90;;;;;;5096001;28;20417;-56
2021/05/02 05:45:23;;;;;;;8.80;7.00;;;8.20;99.90;;;;;;5108805;28;20180;-58
2021/05/02 05:47:53;;;;;;;7.60;6.80;;;8.30;99.90;;;;;;5106884;28;20421;-58
2021/05/02 05:50:20;;;;;;;8.30;6.23;;;8.30;99.90;;;;;;5107621;28;20943;-58
2021/05/02 05:52:47;;;;;;;7.67;6.50;;;8.30;99.90;;;;;;5097286;28;20569;-57
2021/05/02 05:55:14;;;;;;;10.57;7.00;;;8.30;99.90;;;;;;5082865;28;20417;-58
2021/05/02 05:57:40;;;;;;;8.20;6.63;;;8.40;99.90;;;;;;5100499;28;20522;-58
2021/05/02 06:00:09;;;;;;;7.47;6.77;;;8.30;99.90;;;;;;5106240;28;20417;-58
2021/05/02 06:02:36;;;;;;;9.27;6.90;;;8.40;99.90;;;;;;5096784;28;20504;-58
2021/05/02 06:05:03;;;;;;;8.10;6.73;;;8.40;99.90;;;;;;5106609;28;20430;-58
2021/05/02 06:07:28;;;;;;;9.20;6.13;;;8.40;99.90;;;;;;5102672;28;20437;-58
2021/05/02 06:09:54;;;;;;;8.27;6.17;;;8.30;99.90;;;;;;5079659;28;20419;-58
2021/05/02 06:12:20;;;;;;;7.40;5.80;;;8.40;99.90;;;;;;5087506;28;20399;-57
2021/05/02 06:14:46;;;;;;;7.63;6.03;;;8.30;99.90;;;;;;5087683;28;20184;-58
2021/05/02 06:17:12;;;;;;;8.33;7.00;;;8.40;99.90;;;;;;5091981;28;20799;-58
2021/05/02 06:19:38;;;;;;;7.20;6.33;;;8.30;99.90;;;;;;5107138;28;20464;-57
2021/05/02 06:22:04;;;;;;;8.03;6.27;;;8.40;99.90;;;;;;5107917;28;20192;-57
2021/05/02 06:24:30;;;;;;;8.73;5.87;;;8.40;99.90;;;;;;5080390;28;21001;-58
2021/05/02 06:26:56;;;;;;;9.93;6.07;;;8.50;99.90;;;;;;5093138;28;20427;-56
2021/05/02 06:29:22;;;;;;;9.63;6.83;;;8.30;99.90;;;;;;5086871;28;20422;-58
2021/05/02 06:31:48;;;;;;;9.80;6.50;;;8.40;99.90;;;;;;5087452;28;20240;-58
2021/05/02 06:34:13;;;;;;;8.30;6.00;;;8.40;99.90;;;;;;5087430;28;20934;-58
2021/05/02 06:36:41;;;;;;;11.37;6.67;;;8.40;99.90;;;;;;5087168;28;20426;-57
2021/05/02 06:39:08;;;;;;;6.90;6.13;;;8.40;99.90;;;;;;5071245;28;20192;-57
2021/05/02 06:41:37;;;;;;;10.30;7.00;;;8.50;99.90;;;;;;5086465;28;20432;-57
2021/05/02 06:44:03;;;;;;;8.43;6.70;;;8.60;99.90;;;;;;5087116;28;20543;-57
2021/05/02 06:46:30;;;;;;;8.00;6.23;;;8.60;99.90;;;;;;5086665;28;20423;-58
2021/05/02 06:48:57;;;;;;;8.37;5.90;;;8.60;99.90;;;;;;5086377;28;20505;-56
2021/05/02 06:51:24;;;;;;;6.70;4.83;;;8.50;99.90;;;;;;5086316;28;20442;-58
2021/05/02 06:53:50;;;;;;;8.17;5.77;;;8.50;99.90;;;;;;5080615;28;20435;-55
2021/05/02 06:56:15;;;;;;;7.73;5.30;;;8.60;99.90;;;;;;5085334;28;20418;-57
2021/05/02 06:58:41;;;;;;;6.40;5.70;;;8.70;99.90;;;;;;5085604;28;20231;-58
2021/05/02 07:01:07;;;;;;;7.73;4.93;;;8.60;99.90;;;;;;5086254;28;20422;-58
2021/05/02 07:03:33;;;;;;;5.80;4.83;;;8.80;99.90;;;;;;5088751;28;20419;-58
2021/05/02 07:06:00;;;;;;;6.50;5.13;;;8.80;99.90;;;;;;5085093;28;20421;-58
2021/05/02 07:08:25;;;;;;;8.40;5.10;;;9.10;99.90;;;;;;5081436;28;20258;-58
2021/05/02 07:10:51;;;;;;;6.60;5.50;;;8.80;99.90;;;;;;5083941;28;20422;-57
2021/05/02 07:13:17;;;;;;;5.47;4.93;;;9.00;99.90;;;;;;5086883;28;20207;-58
2021/05/02 07:15:43;;;;;;;5.73;5.10;;;9.00;99.90;;;;;;5087579;28;20228;-57
2021/05/02 07:18:09;;;;;;;7.13;4.50;;;9.00;99.90;;;;;;5082679;28;20914;-52
2021/05/02 07:20:35;;;;;;;8.17;4.57;;;9.00;99.90;;;;;;5097361;28;20248;-57
2021/05/02 07:23:01;;;;;;;5.53;4.50;;;9.20;99.90;;;;;;5092801;28;20968;-57
2021/05/02 07:25:27;;;;;;;6.60;4.60;;;9.50;99.90;;;;;;5075780;28;20442;-55
2021/05/02 07:27:53;;;;;;;6.40;4.70;;;9.30;99.90;;;;;;5083327;28;20267;-56
2021/05/02 07:30:21;;;;;;;4.63;3.50;;;9.30;99.90;;;;;;5092413;28;20430;-57
2021/05/02 07:32:47;;;;;;;4.70;3.53;;;9.40;99.90;;;;;;5103814;28;20836;-53
2021/05/02 07:35:13;;;;;;;6.13;3.60;;;9.50;99.90;;;;;;5084807;28;20410;-55
2021/05/02 07:37:39;;;;;;;6.33;3.13;;;9.60;99.90;;;;;;5092107;28;20414;-58
2021/05/02 07:40:07;;;;;;;5.97;3.20;;;9.60;99.90;;;;;;5087889;28;20410;-58
2021/05/02 07:42:33;;;;;;;5.47;3.90;;;9.70;99.90;;;;;;5090896;28;20461;-57
2021/05/02 07:44:59;;;;;;;5.90;3.53;;;9.80;99.90;;;;;;5086201;28;20415;-53
2021/05/02 07:47:25;;;;;;;3.40;3.10;;;9.90;99.90;;;;;;5085389;28;20730;-52
2021/05/02 07:49:51;;;;;;;3.77;3.33;;;9.80;99.90;;;;;;5088975;28;20195;-57
2021/05/02 07:52:17;;;;;;;5.43;3.57;;;9.70;99.90;;;;;;5096132;28;20220;-54
2021/05/02 07:54:44;;;;;;;5.17;3.27;;;9.80;99.90;;;;;;5085723;28;20944;-57
2021/05/02 07:57:10;;;;;;;3.90;3.50;;;9.90;99.90;;;;;;5090807;28;20760;-56
2021/05/02 07:59:38;;;;;;;4.50;3.30;;;9.80;99.90;;;;;;5095496;28;20576;-57
2021/05/02 08:02:05;;;;;;;6.63;3.30;;;9.90;99.90;;;;;;5089602;28;20197;-57
2021/05/02 08:04:31;;;;;;;4.13;2.83;;;9.90;99.90;;;;;;5089533;28;20419;-58
2021/05/02 08:06:56;;;;;;;4.23;3.17;;;10.00;99.90;;;;;;5085337;28;20483;-57
2021/05/02 08:09:22;;;;;;;5.87;3.47;;;10.10;99.90;;;;;;5075184;28;20212;-59
2021/05/02 08:11:48;;;;;;;4.53;2.77;;;10.10;99.90;;;;;;5081510;28;20714;-58
2021/05/02 08:14:13;;;;;;;5.57;2.90;;;10.10;99.90;;;;;;5084494;28;20267;-59
2021/05/02 08:16:40;;;;;;;6.90;3.20;;;10.10;99.20;;;;;;5085163;28;20189;-59
2021/05/02 08:19:06;;;;;;;3.17;2.80;;;10.20;99.10;;;;;;5084514;28;20559;-56
2021/05/02 08:21:32;;;;;;;5.37;3.00;;;10.10;99.00;;;;;;5079652;28;20780;-59
2021/05/02 08:23:58;;;;;;;4.20;2.60;;;10.10;98.60;;;;;;5083587;28;20754;-57
2021/05/02 08:26:23;;;;;;;3.90;3.00;;;10.20;98.90;;;;;;5089000;28;20200;-59
2021/05/02 08:28:49;;;;;;;3.13;2.90;;;10.30;98.10;;;;;;5083286;28;20990;-55
2021/05/02 08:31:15;;;;;;;3.73;2.63;;;10.30;97.70;;;;;;5099266;28;20233;-57
2021/05/02 08:33:41;;;;;;;7.17;3.30;;;10.30;97.50;;;;;;5100957;28;20180;-59
2021/05/02 08:36:07;;;;;;;3.93;2.87;;;10.30;97.50;;;;;;5083599;28;20632;-59
2021/05/02 08:38:34;;;;;;;4.57;2.63;;;10.40;97.90;;;;;;5065840;28;20188;-59
2021/05/02 08:41:00;;;;;;;5.13;2.63;;;10.40;98.10;;;;;;5078533;28;20438;-59
2021/05/02 08:43:29;;;;;;;6.17;2.80;;;10.40;97.70;;;;;;5083577;28;21028;-59
2021/05/02 08:45:54;;;;;;;5.70;2.60;;;10.40;97.80;;;;;;5088201;28;20448;-58
2021/05/02 08:48:21;;;;;;;3.43;2.67;;;10.50;97.70;;;;;;5090533;28;20434;-59
2021/05/02 08:50:49;;;;;;;3.40;2.90;;;10.60;96.80;;;;;;5084553;28;20180;-54
2021/05/02 08:53:16;;;;;;;3.10;2.50;;;10.60;97.10;;;;;;5087557;28;20553;-58
2021/05/02 08:55:42;;;;;;;3.37;2.80;;;10.70;97.30;;;;;;5090001;28;21077;-57
2021/05/02 08:58:17;;;;;;;6.93;2.97;;;10.80;95.90;;;;;;5088797;28;20437;-59
2021/05/02 09:00:43;;;;;;;3.90;2.90;;;10.70;96.10;;;;;;5085052;28;20420;-59
2021/05/02 09:03:09;;;;;;;6.00;2.90;;;10.70;96.30;;;;;;5087583;28;20679;-57
2021/05/02 09:05:46;;;;;;;4.03;3.20;;;10.70;97.00;;;;;;5088084;28;20810;-58
2021/05/02 09:08:33;;;;;;;4.57;3.10;;;10.60;97.10;;;;;;5085693;28;20200;-59
2021/05/02 09:11:00;;;;;;;6.13;3.60;;;10.60;97.60;;;;;;5079303;28;20806;-58
2021/05/02 09:13:27;;;;;;;2.77;2.57;;;10.60;97.30;;;;;;5085230;28;20419;-58
2021/05/02 09:16:01;;;;;;;3.57;3.27;;;10.70;98.00;;;;;;5086456;28;20430;-56
2021/05/02 09:18:35;;;;;;;6.93;4.63;;;10.80;98.30;;;;;;5085920;28;20453;-59
2021/05/02 09:21:02;;;;;;;3.63;3.33;;;10.90;97.60;;;;;;5087810;28;20422;-58
2021/05/02 09:23:39;;;;;;;5.73;4.00;;;10.90;97.10;;;;;;5089706;28;20760;-59
2021/05/02 09:26:05;;;;;;;7.23;3.50;;;10.80;96.90;;;;;;5079169;28;20477;-57
2021/05/02 09:28:44;;;;;;;2.93;2.73;;;10.80;97.10;;;;;;5084347;28;20522;-58
2021/05/02 09:31:12;;;;;;;5.50;3.00;;;10.70;97.40;;;;;;5088147;28;20421;-59
2021/05/02 09:33:38;;;;;;;3.10;2.83;;;10.70;97.00;;;;;;5095789;28;20526;-59
2021/05/02 09:36:18;;;;;;;3.83;3.30;;;10.70;96.90;;;;;;5088024;28;20490;-59
2021/05/02 09:38:44;;;;;;;5.80;3.40;;;10.80;96.90;;;;;;5083742;28;20467;-59
2021/05/02 09:41:12;;;;;;;3.57;3.03;;;10.80;97.20;;;;;;5084785;28;20509;-59
2021/05/02 09:43:44;;;;;;;7.33;3.20;;;10.40;96.80;;;;;;5087192;28;20472;-59
2021/05/02 09:46:31;;;;;;;3.47;3.17;;;10.70;97.20;;;;;;5087419;28;20439;-59
2021/05/02 09:49:15;;;;;;;4.30;2.13;;;10.70;96.80;;;;;;5082655;28;20954;-58
2021/05/02 09:51:47;;;;;;;5.03;2.20;;;10.90;97.20;;;;;;5086091;28;21117;-57
2021/05/02 09:54:21;;;;;;;3.40;2.43;;;11.10;97.30;;;;;;5068273;28;20504;-57
2021/05/02 09:57:02;;;;;;;5.10;2.40;;;11.30;96.00;;;;;;5075456;28;20534;-58
2021/05/02 09:59:31;;;;;;;4.73;2.50;;;11.40;95.70;;;;;;5073694;28;20543;-56
2021/05/02 10:02:12;;;;;;;3.93;2.37;;;11.50;94.50;;;;;;5087158;28;20920;-59
2021/05/02 10:04:52;;;;;;;2.40;2.10;;;11.50;93.90;;;;;;5097670;28;20769;-59
2021/05/02 10:07:36;;;;;;;2.70;2.50;;;11.40;94.00;;;;;;5109133;28;20425;-59
2021/05/02 10:10:02;;;;;;;3.10;2.80;;;11.40;94.30;;;;;;5106645;28;20430;-59
2021/05/02 10:12:29;;;;;;;4.10;3.00;;;11.40;94.10;;;;;;5078394;28;20466;-58
2021/05/02 10:14:57;;;;;;;4.87;2.60;;;11.30;94.50;;;;;;5100441;27;20905;-59
2021/05/02 10:17:24;;;;;;;4.23;2.73;;;11.30;95.20;;;;;;5097478;28;20418;-59
2021/05/02 10:19:50;;;;;;;2.77;2.50;;;11.40;94.50;;;;;;5086218;28;20486;-59
2021/05/02 10:22:18;;;;;;;4.20;2.70;;;11.40;93.20;;;;;;5088117;28;21157;-57
2021/05/02 10:24:44;;;;;;;6.63;2.77;;;11.30;93.10;;;;;;5090420;28;20195;-56
2021/05/02 10:27:11;;;;;;;3.00;2.80;;;11.50;93.80;;;;;;5078813;28;21155;-57
2021/05/02 10:29:39;;;;;;;3.80;2.77;;;11.60;92.50;;;;;;5092605;28;20428;-59
2021/05/02 10:32:15;;;;;;;2.50;2.30;;;11.60;91.90;;;;;;5092658;28;20458;-57
2021/05/02 10:34:47;;;;;;;2.87;2.57;;;11.60;91.60;;;;;;5086017;28;20514;-59
2021/05/02 10:37:25;;;;;;;2.20;2.00;;;11.50;91.50;;;;;;5095558;28;20482;-58
2021/05/02 10:40:06;;;;;;;4.50;2.47;;;11.60;92.20;;;;;;5084339;28;20539;-59
2021/05/02 10:42:53;;;;;;;3.47;2.20;;;11.60;92.00;;;;;;5077801;28;20431;-57
2021/05/02 10:45:33;;;;;;;3.00;2.73;;;11.60;92.10;;;;;;5090335;28;20433;-58
2021/05/02 10:47:59;;;;;;;3.77;2.50;;;11.70;91.60;;;;;;5090195;28;20421;-58
2021/05/02 10:50:26;;;;;;;2.73;2.10;;;11.70;90.60;;;;;;5096815;28;20425;-58
2021/05/02 10:53:22;;;;;;;4.43;2.80;;;11.60;90.60;;;;;;5086855;28;20879;-58
2021/05/02 10:56:03;;;;;;;2.47;2.20;;;11.50;90.00;;;;;;5083891;28;20974;-59
2021/05/02 10:58:39;;;;;;;6.90;3.10;;;11.40;90.30;;;;;;5081388;28;20422;-58
2021/05/02 11:01:10;;;;;;;4.70;2.87;;;11.40;91.10;;;;;;5078078;28;20410;-59
2021/05/02 11:03:38;;;;;;;3.97;2.47;;;11.30;90.40;;;;;;5084075;28;20483;-59
2021/05/02 11:06:14;;;;;;;2.53;2.10;;;11.30;91.00;;;;;;5086071;28;20442;-59
2021/05/02 11:08:50;;;;;;;3.40;2.23;;;11.30;91.10;;;;;;5085380;28;20446;-59
2021/05/02 11:11:39;;;;;;;2.33;2.13;;;11.30;91.50;;;;;;5080203;28;20431;-58
2021/05/02 11:14:10;;;;;;;2.63;2.43;;;11.30;91.00;;;;;;5079671;28;20414;-57
2021/05/02 11:16:39;;;;;;;3.10;2.67;;;11.40;91.20;;;;;;5088734;28;20442;-59
2021/05/02 11:19:11;;;;;;;3.33;2.10;;;11.40;90.80;;;;;;5105567;28;20916;-55
2021/05/02 11:21:46;;;;;;;3.50;2.17;;;11.40;90.60;;;;;;5085268;28;20423;-59
2021/05/02 11:24:20;;;;;;;3.83;2.23;;;11.40;89.90;;;;;;5104461;28;20839;-59
2021/05/02 11:29:33;;;;;;;2.17;1.97;;;11.30;90.50;;;;;;5082501;28;20483;-59
2021/05/02 11:32:01;;;;;;;3.90;2.50;;;11.30;90.70;;;;;;5076353;28;20541;-58
2021/05/02 11:34:47;;;;;;;2.50;2.17;;;11.40;90.80;;;;;;5102732;28;20566;-58
2021/05/02 11:37:40;;;;;;;8.20;3.07;;;11.40;90.30;;;;;;5076906;28;20429;-58
2021/05/02 11:40:18;;;;;;;2.90;1.70;;;11.50;88.10;;;;;;5085830;28;20413;-56
2021/05/02 11:43:05;;;;;;;2.90;2.03;;;11.50;86.80;;;;;;5079362;28;20744;-58
2021/05/02 11:45:46;;;;;;;2.63;2.40;;;11.60;86.00;;;;;;5084065;28;20818;-58
2021/05/02 11:48:24;;;;;;;2.07;1.87;;;11.60;84.30;;;;;;5085943;28;20430;-58
2021/05/02 11:50:55;;;;;;;2.60;1.60;;;11.60;84.70;;;;;;5086691;28;20422;-58
2021/05/02 11:53:54;;;;;;;2.60;1.67;;;11.60;84.70;;;;;;5068072;28;20886;-58
2021/05/02 11:56:29;;;;;;;2.17;1.97;;;11.70;84.40;;;;;;5072452;28;20862;-58
2021/05/02 11:59:05;;;;;;;1.60;1.50;;;11.70;82.10;;;;;;5081058;28;20432;-57
2021/05/02 12:01:32;;;;;;;2.10;1.70;;;11.60;82.80;;;;;;5087203;28;20892;-58
2021/05/02 12:04:18;;;;;;;3.07;1.90;;;11.70;82.80;;;;;;5086538;28;20427;-58
2021/05/02 12:06:45;;;;;;;3.27;1.97;;;11.70;83.90;;;;;;5084163;28;20411;-57
2021/05/02 12:09:13;;;;;;;2.27;1.77;;;11.70;82.60;;;;;;5085900;28;20539;-58
2021/05/02 12:11:40;;;;;;;3.10;2.23;;;11.70;83.30;;;;;;5086042;28;20461;-56
2021/05/02 12:14:06;;;;;;;3.27;1.97;;;11.70;83.90;;;;;;5072523;28;20438;-56
2021/05/02 12:16:32;;;;;;;2.23;2.03;;;11.80;84.70;;;;;;5085833;28;20571;-57
2021/05/02 12:19:06;;;;;;;1.80;1.67;;;11.70;83.20;;;;;;5085274;28;20786;-56
2021/05/02 12:21:37;;;;;;;2.37;1.87;;;11.70;83.50;;;;;;5084881;28;20198;-58
2021/05/02 12:24:11;;;;;;;3.10;2.33;;;11.70;83.90;;;;;;5090547;28;20429;-57
2021/05/02 12:26:58;;;;;;;1.83;1.57;;;11.70;83.10;;;;;;5089989;28;20774;-56
2021/05/02 12:29:31;;;;;;;3.57;2.20;;;11.70;83.40;;;;;;5080956;28;20476;-59
2021/05/02 12:32:17;;;;;;;2.10;1.90;;;11.70;83.90;;;;;;5068800;28;20485;-58
2021/05/02 12:34:46;;;;;;;3.90;2.07;;;11.70;83.90;;;;;;5090905;28;20421;-58
2021/05/02 12:37:23;;;;;;;2.73;1.70;;;11.70;83.40;;;;;;5092536;28;20430;-58
2021/05/02 12:39:55;;;;;;;3.10;1.80;;;11.80;82.00;;;;;;5085813;28;20418;-58
2021/05/02 12:42:35;;;;;;;1.70;1.60;;;11.90;84.30;;;;;;5085605;28;20418;-57
2021/05/02 12:45:03;;;;;;;1.50;1.40;;;11.90;83.20;;;;;;5086366;28;20410;-59
2021/05/02 12:47:30;;;;;;;2.83;1.67;;;12.00;81.60;;;;;;5089171;28;20505;-57
2021/05/02 12:50:08;;;;;;;2.03;1.77;;;12.00;79.70;;;;;;5088087;28;20407;-59
2021/05/02 12:52:35;;;;;;;2.30;1.60;;;11.90;78.50;;;;;;5090692;28;20448;-57
2021/05/02 12:55:21;;;;;;;1.70;1.50;;;11.80;79.90;;;;;;5087962;28;20418;-59
2021/05/02 12:57:49;;;;;;;1.90;1.73;;;11.80;81.90;;;;;;5085104;28;20431;-58
2021/05/02 13:00:19;;;;;;;3.03;1.50;;;11.70;81.60;;;;;;5082397;28;20422;-56